sensor_id;sensor_type;location;lat;lon;timestamp;P1;durP1;ratioP1;P2;durP2;ratioP2
51312;SDS011;37397;53.226;10.400;2023-11-19T00:00:29;9.73;;;5.88;;
51312;SDS011;37397;53.226;10.400;2023-11-19T00:02:55;8.65;;;5.07;;
51312;SDS011;37397;53.226;10.400;2023-11-19T00:05:22;9.77;;;5.40;;
51312;SDS011;37397;53.226;10.400;2023-11-19T00:07:48;8.45;;;4.78;;
51312;SDS011;37397;53.226;10.400;2023-11-19T00:10:15;8.57;;;5.15;;
51312;SDS011;37397;53.226;10.400;2023-11-19T00:12:46;7.32;;;4.22;;
51312;SDS011;37397;53.226;10.400;2023-11-19T00:15:14;7.72;;;4.40;;
51312;SDS011;37397;53.226;10.400;2023-11-19T00:17:42;6.72;;;4.15;;
51312;SDS011;37397;53.226;10.400;2023-11-19T00:20:14;6.78;;;4.20;;
51312;SDS011;37397;53.226;10.400;2023-11-19T00:22:42;7.18;;;3.95;;
51312;SDS011;37397;53.226;10.400;2023-11-19T00:25:12;6.97;;;3.92;;
51312;SDS011;37397;53.226;10.400;2023-11-19T00:27:39;6.60;;;4.00;;
51312;SDS011;37397;53.226;10.400;2023-11-19T00:30:06;6.57;;;3.80;;
51312;SDS011;37397;53.226;10.400;2023-11-19T00:32:33;6.22;;;3.80;;
51312;SDS011;37397;53.226;10.400;2023-11-19T00:34:59;6.28;;;3.38;;
51312;SDS011;37397;53.226;10.400;2023-11-19T00:37:26;5.95;;;3.60;;
51312;SDS011;37397;53.226;10.400;2023-11-19T00:39:53;7.40;;;3.65;;
51312;SDS011;37397;53.226;10.400;2023-11-19T00:42:19;6.10;;;3.38;;
51312;SDS011;37397;53.226;10.400;2023-11-19T00:44:46;6.15;;;3.65;;
51312;SDS011;37397;53.226;10.400;2023-11-19T00:47:16;5.57;;;3.40;;
51312;SDS011;37397;53.226;10.400;2023-11-19T00:49:43;5.05;;;2.97;;
51312;SDS011;37397;53.226;10.400;2023-11-19T00:52:10;5.93;;;3.45;;
51312;SDS011;37397;53.226;10.400;2023-11-19T00:54:36;6.68;;;3.65;;
51312;SDS011;37397;53.226;10.400;2023-11-19T00:57:03;4.97;;;2.80;;
51312;SDS011;37397;53.226;10.400;2023-11-19T00:59:30;4.57;;;2.88;;
51312;SDS011;37397;53.226;10.400;2023-11-19T01:01:56;5.90;;;3.30;;
51312;SDS011;37397;53.226;10.400;2023-11-19T01:04:23;7.47;;;3.28;;
51312;SDS011;37397;53.226;10.400;2023-11-19T01:06:50;5.45;;;3.38;;
51312;SDS011;37397;53.226;10.400;2023-11-19T01:09:17;5.47;;;3.13;;
51312;SDS011;37397;53.226;10.400;2023-11-19T01:11:43;6.50;;;3.70;;
51312;SDS011;37397;53.226;10.400;2023-11-19T01:14:10;6.32;;;3.53;;
51312;SDS011;37397;53.226;10.400;2023-11-19T01:16:37;6.35;;;3.28;;
51312;SDS011;37397;53.226;10.400;2023-11-19T01:19:03;5.75;;;3.15;;
51312;SDS011;37397;53.226;10.400;2023-11-19T01:21:43;6.22;;;3.50;;
51312;SDS011;37397;53.226;10.400;2023-11-19T01:24:10;4.95;;;3.20;;
51312;SDS011;37397;53.226;10.400;2023-11-19T01:26:38;6.10;;;3.47;;
51312;SDS011;37397;53.226;10.400;2023-11-19T01:29:05;5.78;;;3.55;;
51312;SDS011;37397;53.226;10.400;2023-11-19T01:31:33;5.20;;;3.08;;
51312;SDS011;37397;53.226;10.400;2023-11-19T01:34:00;4.10;;;2.70;;
51312;SDS011;37397;53.226;10.400;2023-11-19T01:36:27;5.85;;;3.30;;
51312;SDS011;37397;53.226;10.400;2023-11-19T01:38:54;5.68;;;3.08;;
51312;SDS011;37397;53.226;10.400;2023-11-19T01:41:20;5.85;;;3.33;;
51312;SDS011;37397;53.226;10.400;2023-11-19T01:43:47;4.93;;;2.95;;
51312;SDS011;37397;53.226;10.400;2023-11-19T01:46:13;5.50;;;3.55;;
51312;SDS011;37397;53.226;10.400;2023-11-19T01:48:42;4.97;;;2.88;;
51312;SDS011;37397;53.226;10.400;2023-11-19T01:51:12;5.18;;;3.03;;
51312;SDS011;37397;53.226;10.400;2023-11-19T01:53:43;4.75;;;3.00;;
51312;SDS011;37397;53.226;10.400;2023-11-19T01:56:11;7.68;;;2.92;;
51312;SDS011;37397;53.226;10.400;2023-11-19T01:58:39;6.57;;;3.30;;
51312;SDS011;37397;53.226;10.400;2023-11-19T02:01:08;5.72;;;3.42;;
51312;SDS011;37397;53.226;10.400;2023-11-19T02:03:35;5.32;;;3.03;;
51312;SDS011;37397;53.226;10.400;2023-11-19T02:06:02;5.38;;;3.05;;
51312;SDS011;37397;53.226;10.400;2023-11-19T02:08:29;4.88;;;2.75;;
51312;SDS011;37397;53.226;10.400;2023-11-19T02:10:56;4.93;;;2.83;;
51312;SDS011;37397;53.226;10.400;2023-11-19T02:13:26;5.00;;;2.95;;
51312;SDS011;37397;53.226;10.400;2023-11-19T02:15:55;4.20;;;2.88;;
51312;SDS011;37397;53.226;10.400;2023-11-19T02:18:23;4.70;;;2.53;;
51312;SDS011;37397;53.226;10.400;2023-11-19T02:20:54;4.85;;;2.95;;
51312;SDS011;37397;53.226;10.400;2023-11-19T02:23:22;4.03;;;2.63;;
51312;SDS011;37397;53.226;10.400;2023-11-19T02:25:57;5.05;;;2.85;;
51312;SDS011;37397;53.226;10.400;2023-11-19T02:28:32;5.88;;;3.17;;
51312;SDS011;37397;53.226;10.400;2023-11-19T02:30:59;4.85;;;2.92;;
51312;SDS011;37397;53.226;10.400;2023-11-19T02:33:26;4.88;;;2.70;;
51312;SDS011;37397;53.226;10.400;2023-11-19T02:35:52;4.63;;;2.75;;
51312;SDS011;37397;53.226;10.400;2023-11-19T02:38:19;4.38;;;2.47;;
51312;SDS011;37397;53.226;10.400;2023-11-19T02:40:48;3.97;;;2.35;;
51312;SDS011;37397;53.226;10.400;2023-11-19T02:43:15;6.55;;;2.58;;
51312;SDS011;37397;53.226;10.400;2023-11-19T02:45:42;3.88;;;2.35;;
51312;SDS011;37397;53.226;10.400;2023-11-19T02:48:12;4.00;;;2.00;;
51312;SDS011;37397;53.226;10.400;2023-11-19T02:50:38;3.55;;;2.10;;
51312;SDS011;37397;53.226;10.400;2023-11-19T02:53:05;3.50;;;2.00;;
51312;SDS011;37397;53.226;10.400;2023-11-19T02:55:33;3.22;;;2.00;;
51312;SDS011;37397;53.226;10.400;2023-11-19T02:58:05;3.55;;;2.20;;
51312;SDS011;37397;53.226;10.400;2023-11-19T03:00:42;2.70;;;2.00;;
51312;SDS011;37397;53.226;10.400;2023-11-19T03:03:15;2.97;;;1.92;;
51312;SDS011;37397;53.226;10.400;2023-11-19T03:05:47;2.13;;;1.58;;
51312;SDS011;37397;53.226;10.400;2023-11-19T03:08:14;2.85;;;1.77;;
51312;SDS011;37397;53.226;10.400;2023-11-19T03:10:44;4.38;;;1.85;;
51312;SDS011;37397;53.226;10.400;2023-11-19T03:13:12;2.80;;;1.35;;
51312;SDS011;37397;53.226;10.400;2023-11-19T03:15:43;2.08;;;1.48;;
51312;SDS011;37397;53.226;10.400;2023-11-19T03:18:10;2.40;;;1.40;;
51312;SDS011;37397;53.226;10.400;2023-11-19T03:20:37;1.38;;;1.20;;
51312;SDS011;37397;53.226;10.400;2023-11-19T03:23:03;1.30;;;1.20;;
51312;SDS011;37397;53.226;10.400;2023-11-19T03:25:30;1.45;;;1.25;;
51312;SDS011;37397;53.226;10.400;2023-11-19T03:28:00;1.55;;;1.17;;
51312;SDS011;37397;53.226;10.400;2023-11-19T03:30:28;1.60;;;1.30;;
51312;SDS011;37397;53.226;10.400;2023-11-19T03:32:58;4.38;;;1.30;;
51312;SDS011;37397;53.226;10.400;2023-11-19T03:35:27;1.40;;;1.20;;
51312;SDS011;37397;53.226;10.400;2023-11-19T03:37:54;1.52;;;1.08;;
51312;SDS011;37397;53.226;10.400;2023-11-19T03:40:20;0.95;;;0.90;;
51312;SDS011;37397;53.226;10.400;2023-11-19T03:42:47;1.35;;;1.05;;
51312;SDS011;37397;53.226;10.400;2023-11-19T03:45:14;1.35;;;0.95;;
51312;SDS011;37397;53.226;10.400;2023-11-19T03:47:42;2.10;;;1.20;;
51312;SDS011;37397;53.226;10.400;2023-11-19T03:50:08;1.20;;;1.00;;
51312;SDS011;37397;53.226;10.400;2023-11-19T03:52:35;0.90;;;0.90;;
51312;SDS011;37397;53.226;10.400;2023-11-19T03:55:05;0.90;;;0.90;;
51312;SDS011;37397;53.226;10.400;2023-11-19T03:57:34;0.82;;;0.75;;
51312;SDS011;37397;53.226;10.400;2023-11-19T04:00:02;1.25;;;0.82;;
51312;SDS011;37397;53.226;10.400;2023-11-19T04:02:40;0.93;;;0.90;;
51312;SDS011;37397;53.226;10.400;2023-11-19T04:05:07;0.95;;;0.90;;
51312;SDS011;37397;53.226;10.400;2023-11-19T04:07:34;0.88;;;0.88;;
51312;SDS011;37397;53.226;10.400;2023-11-19T04:10:00;1.63;;;1.02;;
51312;SDS011;37397;53.226;10.400;2023-11-19T04:12:27;1.58;;;1.10;;
51312;SDS011;37397;53.226;10.400;2023-11-19T04:14:53;1.17;;;0.85;;
51312;SDS011;37397;53.226;10.400;2023-11-19T04:17:23;1.08;;;0.90;;
51312;SDS011;37397;53.226;10.400;2023-11-19T04:19:49;2.45;;;1.00;;
51312;SDS011;37397;53.226;10.400;2023-11-19T04:22:16;1.33;;;1.00;;
51312;SDS011;37397;53.226;10.400;2023-11-19T04:24:43;0.95;;;0.95;;
51312;SDS011;37397;53.226;10.400;2023-11-19T04:27:12;1.20;;;1.10;;
51312;SDS011;37397;53.226;10.400;2023-11-19T04:29:39;0.90;;;0.90;;
51312;SDS011;37397;53.226;10.400;2023-11-19T04:32:05;1.92;;;1.38;;
51312;SDS011;37397;53.226;10.400;2023-11-19T04:34:32;2.53;;;1.33;;
51312;SDS011;37397;53.226;10.400;2023-11-19T04:36:59;2.47;;;1.40;;
51312;SDS011;37397;53.226;10.400;2023-11-19T04:39:39;1.60;;;1.27;;
51312;SDS011;37397;53.226;10.400;2023-11-19T04:42:05;3.63;;;1.58;;
51312;SDS011;37397;53.226;10.400;2023-11-19T04:44:33;1.98;;;1.40;;
51312;SDS011;37397;53.226;10.400;2023-11-19T04:46:59;4.22;;;1.80;;
51312;SDS011;37397;53.226;10.400;2023-11-19T04:49:27;2.63;;;1.60;;
51312;SDS011;37397;53.226;10.400;2023-11-19T04:51:54;2.97;;;1.60;;
51312;SDS011;37397;53.226;10.400;2023-11-19T04:54:20;4.15;;;1.80;;
51312;SDS011;37397;53.226;10.400;2023-11-19T04:56:47;4.68;;;2.30;;
51312;SDS011;37397;53.226;10.400;2023-11-19T04:59:13;5.68;;;2.80;;
51312;SDS011;37397;53.226;10.400;2023-11-19T05:01:40;3.97;;;2.55;;
51312;SDS011;37397;53.226;10.400;2023-11-19T05:04:07;4.78;;;2.70;;
51312;SDS011;37397;53.226;10.400;2023-11-19T05:06:34;3.35;;;2.58;;
51312;SDS011;37397;53.226;10.400;2023-11-19T05:09:01;4.38;;;2.78;;
51312;SDS011;37397;53.226;10.400;2023-11-19T05:11:32;3.97;;;2.72;;
51312;SDS011;37397;53.226;10.400;2023-11-19T05:14:01;5.25;;;2.80;;
51312;SDS011;37397;53.226;10.400;2023-11-19T05:16:30;3.70;;;2.70;;
51312;SDS011;37397;53.226;10.400;2023-11-19T05:18:57;7.07;;;3.30;;
51312;SDS011;37397;53.226;10.400;2023-11-19T05:21:24;9.45;;;3.72;;
51312;SDS011;37397;53.226;10.400;2023-11-19T05:23:51;5.85;;;3.85;;
51312;SDS011;37397;53.226;10.400;2023-11-19T05:26:20;6.90;;;3.22;;
51312;SDS011;37397;53.226;10.400;2023-11-19T05:28:47;4.57;;;3.08;;
51312;SDS011;37397;53.226;10.400;2023-11-19T05:31:15;6.90;;;3.63;;
51312;SDS011;37397;53.226;10.400;2023-11-19T05:33:43;7.32;;;3.90;;
51312;SDS011;37397;53.226;10.400;2023-11-19T05:36:10;6.85;;;4.22;;
51312;SDS011;37397;53.226;10.400;2023-11-19T05:38:39;7.47;;;4.03;;
51312;SDS011;37397;53.226;10.400;2023-11-19T05:41:06;8.63;;;4.78;;
51312;SDS011;37397;53.226;10.400;2023-11-19T05:43:32;7.68;;;4.35;;
51312;SDS011;37397;53.226;10.400;2023-11-19T05:45:59;8.02;;;4.32;;
51312;SDS011;37397;53.226;10.400;2023-11-19T05:48:27;8.38;;;4.93;;
51312;SDS011;37397;53.226;10.400;2023-11-19T05:50:55;9.70;;;5.32;;
51312;SDS011;37397;53.226;10.400;2023-11-19T05:53:21;9.60;;;5.05;;
51312;SDS011;37397;53.226;10.400;2023-11-19T05:55:48;10.30;;;4.53;;
51312;SDS011;37397;53.226;10.400;2023-11-19T05:58:24;8.27;;;4.07;;
51312;SDS011;37397;53.226;10.400;2023-11-19T06:00:52;9.27;;;5.03;;
51312;SDS011;37397;53.226;10.400;2023-11-19T06:03:19;8.80;;;5.15;;
51312;SDS011;37397;53.226;10.400;2023-11-19T06:05:46;8.23;;;4.20;;
51312;SDS011;37397;53.226;10.400;2023-11-19T06:08:12;10.65;;;5.45;;
51312;SDS011;37397;53.226;10.400;2023-11-19T06:10:42;8.27;;;4.40;;
51312;SDS011;37397;53.226;10.400;2023-11-19T06:13:13;10.50;;;5.55;;
51312;SDS011;37397;53.226;10.400;2023-11-19T06:15:44;9.77;;;5.18;;
51312;SDS011;37397;53.226;10.400;2023-11-19T06:18:11;9.50;;;5.38;;
51312;SDS011;37397;53.226;10.400;2023-11-19T06:20:38;9.82;;;6.03;;
51312;SDS011;37397;53.226;10.400;2023-11-19T06:23:08;12.57;;;6.50;;
51312;SDS011;37397;53.226;10.400;2023-11-19T06:25:35;11.60;;;6.28;;
51312;SDS011;37397;53.226;10.400;2023-11-19T06:28:02;10.77;;;5.82;;
51312;SDS011;37397;53.226;10.400;2023-11-19T06:30:29;10.15;;;6.13;;
51312;SDS011;37397;53.226;10.400;2023-11-19T06:32:57;15.18;;;6.10;;
51312;SDS011;37397;53.226;10.400;2023-11-19T06:35:24;11.63;;;6.43;;
51312;SDS011;37397;53.226;10.400;2023-11-19T06:37:50;14.38;;;6.35;;
51312;SDS011;37397;53.226;10.400;2023-11-19T06:40:17;14.20;;;6.68;;
51312;SDS011;37397;53.226;10.400;2023-11-19T06:42:44;15.18;;;6.43;;
51312;SDS011;37397;53.226;10.400;2023-11-19T06:45:10;13.57;;;5.88;;
51312;SDS011;37397;53.226;10.400;2023-11-19T06:47:37;11.93;;;6.93;;
51312;SDS011;37397;53.226;10.400;2023-11-19T06:50:04;11.50;;;5.72;;
51312;SDS011;37397;53.226;10.400;2023-11-19T06:52:32;14.68;;;6.07;;
51312;SDS011;37397;53.226;10.400;2023-11-19T06:54:58;16.05;;;6.60;;
51312;SDS011;37397;53.226;10.400;2023-11-19T06:57:29;16.52;;;7.35;;
51312;SDS011;37397;53.226;10.400;2023-11-19T06:59:58;21.95;;;7.70;;
51312;SDS011;37397;53.226;10.400;2023-11-19T07:02:25;20.17;;;7.18;;
51312;SDS011;37397;53.226;10.400;2023-11-19T07:04:53;21.85;;;6.93;;
51312;SDS011;37397;53.226;10.400;2023-11-19T07:07:21;23.85;;;6.97;;
51312;SDS011;37397;53.226;10.400;2023-11-19T07:09:47;27.15;;;7.93;;
51312;SDS011;37397;53.226;10.400;2023-11-19T07:12:14;21.73;;;7.18;;
51312;SDS011;37397;53.226;10.400;2023-11-19T07:14:41;23.73;;;7.30;;
51312;SDS011;37397;53.226;10.400;2023-11-19T07:17:10;23.10;;;8.13;;
51312;SDS011;37397;53.226;10.400;2023-11-19T07:19:37;17.23;;;7.47;;
51312;SDS011;37397;53.226;10.400;2023-11-19T07:22:05;24.10;;;7.47;;
51312;SDS011;37397;53.226;10.400;2023-11-19T07:24:32;23.25;;;7.38;;
51312;SDS011;37397;53.226;10.400;2023-11-19T07:26:59;20.30;;;7.43;;
51312;SDS011;37397;53.226;10.400;2023-11-19T07:29:26;22.30;;;7.18;;
51312;SDS011;37397;53.226;10.400;2023-11-19T07:31:55;22.02;;;6.68;;
51312;SDS011;37397;53.226;10.400;2023-11-19T07:34:22;25.30;;;6.70;;
51312;SDS011;37397;53.226;10.400;2023-11-19T07:36:49;21.88;;;6.75;;
51312;SDS011;37397;53.226;10.400;2023-11-19T07:39:16;19.98;;;6.88;;
51312;SDS011;37397;53.226;10.400;2023-11-19T07:41:43;20.95;;;6.35;;
51312;SDS011;37397;53.226;10.400;2023-11-19T07:44:10;29.58;;;7.07;;
51312;SDS011;37397;53.226;10.400;2023-11-19T07:46:37;17.95;;;6.72;;
51312;SDS011;37397;53.226;10.400;2023-11-19T07:49:04;22.50;;;5.25;;
51312;SDS011;37397;53.226;10.400;2023-11-19T07:51:30;23.08;;;5.97;;
51312;SDS011;37397;53.226;10.400;2023-11-19T07:53:57;24.02;;;6.80;;
51312;SDS011;37397;53.226;10.400;2023-11-19T07:56:24;19.15;;;6.50;;
51312;SDS011;37397;53.226;10.400;2023-11-19T07:58:51;27.92;;;5.88;;
51312;SDS011;37397;53.226;10.400;2023-11-19T08:01:18;24.45;;;5.40;;
51312;SDS011;37397;53.226;10.400;2023-11-19T08:03:45;20.25;;;6.10;;
51312;SDS011;37397;53.226;10.400;2023-11-19T08:06:14;24.45;;;5.10;;
51312;SDS011;37397;53.226;10.400;2023-11-19T08:08:41;23.58;;;5.50;;
51312;SDS011;37397;53.226;10.400;2023-11-19T08:11:07;26.73;;;4.78;;
51312;SDS011;37397;53.226;10.400;2023-11-19T08:13:34;15.88;;;4.97;;
51312;SDS011;37397;53.226;10.400;2023-11-19T08:16:00;21.98;;;5.63;;
51312;SDS011;37397;53.226;10.400;2023-11-19T08:18:27;28.33;;;5.80;;
51312;SDS011;37397;53.226;10.400;2023-11-19T08:20:54;22.85;;;5.13;;
51312;SDS011;37397;53.226;10.400;2023-11-19T08:23:22;21.63;;;4.75;;
51312;SDS011;37397;53.226;10.400;2023-11-19T08:25:51;26.52;;;5.80;;
51312;SDS011;37397;53.226;10.400;2023-11-19T08:28:18;20.80;;;5.05;;
51312;SDS011;37397;53.226;10.400;2023-11-19T08:30:45;19.65;;;4.45;;
51312;SDS011;37397;53.226;10.400;2023-11-19T08:33:12;22.08;;;5.22;;
51312;SDS011;37397;53.226;10.400;2023-11-19T08:35:38;18.77;;;4.63;;
51312;SDS011;37397;53.226;10.400;2023-11-19T08:38:05;26.98;;;5.47;;
51312;SDS011;37397;53.226;10.400;2023-11-19T08:40:31;21.60;;;5.03;;
51312;SDS011;37397;53.226;10.400;2023-11-19T08:42:58;24.63;;;5.72;;
51312;SDS011;37397;53.226;10.400;2023-11-19T08:45:25;23.90;;;5.43;;
51312;SDS011;37397;53.226;10.400;2023-11-19T08:47:52;19.63;;;4.80;;
51312;SDS011;37397;53.226;10.400;2023-11-19T08:50:18;24.80;;;5.50;;
51312;SDS011;37397;53.226;10.400;2023-11-19T08:52:45;22.20;;;5.18;;
51312;SDS011;37397;53.226;10.400;2023-11-19T08:55:11;24.00;;;5.68;;
51312;SDS011;37397;53.226;10.400;2023-11-19T08:57:39;26.83;;;5.35;;
51312;SDS011;37397;53.226;10.400;2023-11-19T09:00:06;27.75;;;5.65;;
51312;SDS011;37397;53.226;10.400;2023-11-19T09:02:37;26.45;;;5.40;;
51312;SDS011;37397;53.226;10.400;2023-11-19T09:05:04;25.38;;;5.75;;
51312;SDS011;37397;53.226;10.400;2023-11-19T09:07:33;27.15;;;6.00;;
51312;SDS011;37397;53.226;10.400;2023-11-19T09:10:00;25.45;;;5.50;;
51312;SDS011;37397;53.226;10.400;2023-11-19T09:12:27;27.05;;;5.68;;
51312;SDS011;37397;53.226;10.400;2023-11-19T09:14:53;30.90;;;6.70;;
51312;SDS011;37397;53.226;10.400;2023-11-19T09:17:20;27.02;;;5.22;;
51312;SDS011;37397;53.226;10.400;2023-11-19T09:19:46;25.38;;;4.78;;
51312;SDS011;37397;53.226;10.400;2023-11-19T09:22:13;27.60;;;5.80;;
51312;SDS011;37397;53.226;10.400;2023-11-19T09:24:40;28.08;;;5.30;;
51312;SDS011;37397;53.226;10.400;2023-11-19T09:27:07;25.40;;;5.25;;
51312;SDS011;37397;53.226;10.400;2023-11-19T09:29:34;30.55;;;5.82;;
51312;SDS011;37397;53.226;10.400;2023-11-19T09:32:00;21.52;;;4.80;;
51312;SDS011;37397;53.226;10.400;2023-11-19T09:34:30;29.13;;;5.28;;
51312;SDS011;37397;53.226;10.400;2023-11-19T09:36:58;26.52;;;6.40;;
51312;SDS011;37397;53.226;10.400;2023-11-19T09:39:24;29.05;;;5.85;;
51312;SDS011;37397;53.226;10.400;2023-11-19T09:41:51;21.75;;;4.93;;
51312;SDS011;37397;53.226;10.400;2023-11-19T09:44:18;32.13;;;6.10;;
51312;SDS011;37397;53.226;10.400;2023-11-19T09:46:45;30.45;;;5.85;;
51312;SDS011;37397;53.226;10.400;2023-11-19T09:49:13;36.97;;;6.35;;
51312;SDS011;37397;53.226;10.400;2023-11-19T09:52:00;31.17;;;5.78;;
51312;SDS011;37397;53.226;10.400;2023-11-19T09:54:28;28.30;;;6.57;;
51312;SDS011;37397;53.226;10.400;2023-11-19T09:56:55;35.47;;;6.97;;
51312;SDS011;37397;53.226;10.400;2023-11-19T09:59:29;32.55;;;6.72;;
51312;SDS011;37397;53.226;10.400;2023-11-19T10:01:57;36.50;;;6.38;;
51312;SDS011;37397;53.226;10.400;2023-11-19T10:04:23;30.70;;;5.47;;
51312;SDS011;37397;53.226;10.400;2023-11-19T10:06:52;23.92;;;5.03;;
51312;SDS011;37397;53.226;10.400;2023-11-19T10:09:19;30.67;;;6.53;;
51312;SDS011;37397;53.226;10.400;2023-11-19T10:11:45;24.45;;;5.15;;
51312;SDS011;37397;53.226;10.400;2023-11-19T10:14:12;32.00;;;5.80;;
51312;SDS011;37397;53.226;10.400;2023-11-19T10:16:40;32.47;;;6.15;;
51312;SDS011;37397;53.226;10.400;2023-11-19T10:19:07;33.88;;;6.32;;
51312;SDS011;37397;53.226;10.400;2023-11-19T10:21:38;30.77;;;5.75;;
51312;SDS011;37397;53.226;10.400;2023-11-19T10:24:05;29.67;;;5.20;;
51312;SDS011;37397;53.226;10.400;2023-11-19T10:26:33;28.98;;;6.25;;
51312;SDS011;37397;53.226;10.400;2023-11-19T10:29:02;34.65;;;6.30;;
51312;SDS011;37397;53.226;10.400;2023-11-19T10:31:30;29.73;;;5.45;;
51312;SDS011;37397;53.226;10.400;2023-11-19T10:33:56;33.45;;;5.93;;
51312;SDS011;37397;53.226;10.400;2023-11-19T10:36:24;34.17;;;6.72;;
51312;SDS011;37397;53.226;10.400;2023-11-19T10:39:03;40.75;;;7.05;;
51312;SDS011;37397;53.226;10.400;2023-11-19T10:41:30;29.55;;;6.35;;
51312;SDS011;37397;53.226;10.400;2023-11-19T10:43:58;33.00;;;6.78;;
51312;SDS011;37397;53.226;10.400;2023-11-19T10:46:41;35.25;;;6.68;;
51312;SDS011;37397;53.226;10.400;2023-11-19T10:49:10;32.10;;;6.95;;
51312;SDS011;37397;53.226;10.400;2023-11-19T10:51:39;30.48;;;6.38;;
51312;SDS011;37397;53.226;10.400;2023-11-19T10:54:12;30.08;;;5.80;;
51312;SDS011;37397;53.226;10.400;2023-11-19T10:56:43;36.00;;;6.75;;
51312;SDS011;37397;53.226;10.400;2023-11-19T10:59:15;21.88;;;5.35;;
51312;SDS011;37397;53.226;10.400;2023-11-19T11:01:47;24.95;;;5.60;;
51312;SDS011;37397;53.226;10.400;2023-11-19T11:04:19;27.30;;;6.05;;
51312;SDS011;37397;53.226;10.400;2023-11-19T11:06:50;38.05;;;6.50;;
51312;SDS011;37397;53.226;10.400;2023-11-19T11:09:20;27.17;;;5.50;;
51312;SDS011;37397;53.226;10.400;2023-11-19T11:11:47;29.20;;;6.35;;
51312;SDS011;37397;53.226;10.400;2023-11-19T11:14:14;28.50;;;5.85;;
51312;SDS011;37397;53.226;10.400;2023-11-19T11:16:42;25.20;;;5.93;;
51312;SDS011;37397;53.226;10.400;2023-11-19T11:19:10;27.65;;;6.70;;
51312;SDS011;37397;53.226;10.400;2023-11-19T11:21:39;31.73;;;5.78;;
51312;SDS011;37397;53.226;10.400;2023-11-19T11:26:49;25.85;;;5.63;;
51312;SDS011;37397;53.226;10.400;2023-11-19T11:29:31;30.05;;;6.28;;
51312;SDS011;37397;53.226;10.400;2023-11-19T11:32:44;29.52;;;6.32;;
51312;SDS011;37397;53.226;10.400;2023-11-19T11:38:24;31.13;;;6.15;;
51312;SDS011;37397;53.226;10.400;2023-11-19T11:43:53;27.73;;;5.75;;
51312;SDS011;37397;53.226;10.400;2023-11-19T11:48:59;25.63;;;5.85;;
51312;SDS011;37397;53.226;10.400;2023-11-19T12:02:07;26.42;;;6.15;;
51312;SDS011;37397;53.226;10.400;2023-11-19T12:04:35;21.38;;;5.60;;
51312;SDS011;37397;53.226;10.400;2023-11-19T12:07:06;19.85;;;5.15;;
51312;SDS011;37397;53.226;10.400;2023-11-19T12:09:34;24.00;;;5.28;;
51312;SDS011;37397;53.226;10.400;2023-11-19T12:12:11;30.80;;;5.32;;
51312;SDS011;37397;53.226;10.400;2023-11-19T12:14:59;30.17;;;4.75;;
51312;SDS011;37397;53.226;10.400;2023-11-19T12:20:00;21.63;;;4.93;;
51312;SDS011;37397;53.226;10.400;2023-11-19T12:22:38;20.20;;;4.65;;
51312;SDS011;37397;53.226;10.400;2023-11-19T12:25:05;18.42;;;4.20;;
51312;SDS011;37397;53.226;10.400;2023-11-19T12:27:35;23.23;;;4.47;;
51312;SDS011;37397;53.226;10.400;2023-11-19T12:30:03;20.65;;;4.65;;
51312;SDS011;37397;53.226;10.400;2023-11-19T12:32:40;25.75;;;5.55;;
51312;SDS011;37397;53.226;10.400;2023-11-19T12:35:11;24.75;;;5.38;;
51312;SDS011;37397;53.226;10.400;2023-11-19T12:37:42;23.35;;;4.78;;
51312;SDS011;37397;53.226;10.400;2023-11-19T12:40:22;24.27;;;5.28;;
51312;SDS011;37397;53.226;10.400;2023-11-19T12:42:54;27.05;;;4.65;;
51312;SDS011;37397;53.226;10.400;2023-11-19T12:45:21;21.75;;;4.80;;
51312;SDS011;37397;53.226;10.400;2023-11-19T12:47:50;23.17;;;4.75;;
51312;SDS011;37397;53.226;10.400;2023-11-19T12:50:18;20.50;;;4.75;;
51312;SDS011;37397;53.226;10.400;2023-11-19T12:52:58;26.98;;;5.40;;
51312;SDS011;37397;53.226;10.400;2023-11-19T12:55:25;28.40;;;5.20;;
51312;SDS011;37397;53.226;10.400;2023-11-19T12:57:56;26.40;;;5.10;;
51312;SDS011;37397;53.226;10.400;2023-11-19T13:00:26;19.52;;;4.45;;
51312;SDS011;37397;53.226;10.400;2023-11-19T13:02:54;26.48;;;5.45;;
51312;SDS011;37397;53.226;10.400;2023-11-19T13:08:00;27.02;;;5.18;;
51312;SDS011;37397;53.226;10.400;2023-11-19T13:10:27;21.83;;;5.35;;
51312;SDS011;37397;53.226;10.400;2023-11-19T13:13:07;20.98;;;4.68;;
51312;SDS011;37397;53.226;10.400;2023-11-19T13:15:37;30.02;;;5.07;;
51312;SDS011;37397;53.226;10.400;2023-11-19T13:18:03;24.42;;;4.82;;
51312;SDS011;37397;53.226;10.400;2023-11-19T13:20:30;25.58;;;5.03;;
51312;SDS011;37397;53.226;10.400;2023-11-19T13:23:01;31.42;;;5.65;;
51312;SDS011;37397;53.226;10.400;2023-11-19T13:25:29;27.83;;;4.82;;
51312;SDS011;37397;53.226;10.400;2023-11-19T13:27:56;23.48;;;5.35;;
51312;SDS011;37397;53.226;10.400;2023-11-19T13:30:23;29.95;;;5.90;;
51312;SDS011;37397;53.226;10.400;2023-11-19T13:32:53;27.35;;;5.50;;
51312;SDS011;37397;53.226;10.400;2023-11-19T13:35:22;23.90;;;4.93;;
51312;SDS011;37397;53.226;10.400;2023-11-19T13:37:49;26.25;;;5.25;;
51312;SDS011;37397;53.226;10.400;2023-11-19T13:40:15;26.38;;;5.63;;
51312;SDS011;37397;53.226;10.400;2023-11-19T13:42:42;25.80;;;5.82;;
51312;SDS011;37397;53.226;10.400;2023-11-19T13:45:13;31.00;;;5.82;;
51312;SDS011;37397;53.226;10.400;2023-11-19T13:47:44;29.30;;;5.65;;
51312;SDS011;37397;53.226;10.400;2023-11-19T13:50:14;27.98;;;5.63;;
51312;SDS011;37397;53.226;10.400;2023-11-19T13:52:42;28.38;;;5.72;;
51312;SDS011;37397;53.226;10.400;2023-11-19T13:55:12;25.63;;;5.50;;
51312;SDS011;37397;53.226;10.400;2023-11-19T13:57:39;24.90;;;5.60;;
51312;SDS011;37397;53.226;10.400;2023-11-19T14:00:08;27.75;;;5.80;;
51312;SDS011;37397;53.226;10.400;2023-11-19T14:02:50;30.65;;;5.80;;
51312;SDS011;37397;53.226;10.400;2023-11-19T14:05:18;29.45;;;6.00;;
51312;SDS011;37397;53.226;10.400;2023-11-19T14:08:03;24.00;;;5.15;;
51312;SDS011;37397;53.226;10.400;2023-11-19T14:10:50;30.58;;;6.30;;
51312;SDS011;37397;53.226;10.400;2023-11-19T14:13:17;27.10;;;5.50;;
51312;SDS011;37397;53.226;10.400;2023-11-19T14:15:43;28.00;;;5.82;;
51312;SDS011;37397;53.226;10.400;2023-11-19T14:18:13;25.48;;;5.68;;
51312;SDS011;37397;53.226;10.400;2023-11-19T14:20:40;23.73;;;5.43;;
51312;SDS011;37397;53.226;10.400;2023-11-19T14:23:06;26.80;;;6.00;;
51312;SDS011;37397;53.226;10.400;2023-11-19T14:25:33;24.52;;;5.68;;
51312;SDS011;37397;53.226;10.400;2023-11-19T14:28:00;32.42;;;6.50;;
51312;SDS011;37397;53.226;10.400;2023-11-19T14:30:29;25.85;;;5.88;;
51312;SDS011;37397;53.226;10.400;2023-11-19T14:32:56;23.63;;;5.72;;
51312;SDS011;37397;53.226;10.400;2023-11-19T14:35:22;29.08;;;5.57;;
51312;SDS011;37397;53.226;10.400;2023-11-19T14:37:50;29.33;;;5.25;;
51312;SDS011;37397;53.226;10.400;2023-11-19T14:40:17;27.15;;;5.47;;
51312;SDS011;37397;53.226;10.400;2023-11-19T14:42:43;24.40;;;5.20;;
51312;SDS011;37397;53.226;10.400;2023-11-19T14:45:10;28.63;;;5.43;;
51312;SDS011;37397;53.226;10.400;2023-11-19T14:47:38;27.10;;;6.18;;
51312;SDS011;37397;53.226;10.400;2023-11-19T14:50:05;26.92;;;4.85;;
51312;SDS011;37397;53.226;10.400;2023-11-19T14:52:34;19.17;;;4.63;;
51312;SDS011;37397;53.226;10.400;2023-11-19T14:55:01;16.02;;;4.28;;
51312;SDS011;37397;53.226;10.400;2023-11-19T14:57:29;21.75;;;4.03;;
51312;SDS011;37397;53.226;10.400;2023-11-19T14:59:55;20.02;;;4.20;;